Time;durP1;ratioP1;P1;durP2;ratioP2;P2;SDS_P1;SDS_P2;PMS_P1;PMS_P2;Temp;Humidity;BMP_temperature;BMP_pressure;BME280_temperature;BME280_humidity;BME280_pressure;Samples;Min_cycle;Max_cycle;Signal;HPM_P1;HPM_P2
2022/06/08 00:01:43;;;;;;;1.17;1.10;;;13.70;99.90;;;;;;5135050;27;20183;-73
2022/06/08 00:04:12;;;;;;;0.60;0.60;;;13.70;99.90;;;;;;5135163;27;20205;-73
2022/06/08 00:06:38;;;;;;;0.45;0.45;;;13.70;99.90;;;;;;5116647;27;20253;-74
2022/06/08 00:09:04;;;;;;;0.80;0.80;;;13.70;99.90;;;;;;5135180;27;20665;-73
2022/06/08 00:11:30;;;;;;;1.33;1.25;;;13.70;99.90;;;;;;5116044;27;20201;-73
2022/06/08 00:13:55;;;;;;;0.40;0.40;;;13.80;99.90;;;;;;5135226;27;20198;-74
2022/06/08 00:16:21;;;;;;;0.52;0.52;;;13.80;99.90;;;;;;5155293;27;20206;-74
2022/06/08 00:18:47;;;;;;;1.20;0.95;;;13.80;99.90;;;;;;5155679;27;20222;-74
2022/06/08 00:21:14;;;;;;;0.75;0.75;;;13.80;99.90;;;;;;5155623;27;20190;-74
2022/06/08 00:23:42;;;;;;;1.25;1.08;;;13.80;99.90;;;;;;5155396;27;20257;-74
2022/06/08 00:26:08;;;;;;;0.55;0.55;;;13.70;99.90;;;;;;5155490;27;20652;-74
2022/06/08 00:28:34;;;;;;;0.77;0.77;;;13.70;99.90;;;;;;5136719;27;20190;-74
2022/06/08 00:31:03;;;;;;;1.30;1.20;;;13.70;99.90;;;;;;5136693;27;20341;-73
2022/06/08 00:33:29;;;;;;;0.70;0.70;;;13.60;99.90;;;;;;5155100;27;20284;-73
2022/06/08 00:35:55;;;;;;;0.45;0.45;;;13.60;99.90;;;;;;5136846;27;20200;-74
2022/06/08 00:38:21;;;;;;;1.00;0.88;;;13.50;99.90;;;;;;5154997;27;20660;-73
2022/06/08 00:40:51;;;;;;;0.93;0.93;;;13.50;99.90;;;;;;5136630;27;20276;-74
2022/06/08 00:43:17;;;;;;;1.15;0.85;;;13.50;99.90;;;;;;5135917;27;20235;-73
2022/06/08 00:45:44;;;;;;;0.70;0.70;;;13.50;99.90;;;;;;5115937;27;20191;-74
2022/06/08 00:48:10;;;;;;;1.27;1.17;;;13.50;99.90;;;;;;5134391;27;20745;-75
2022/06/08 00:50:44;;;;;;;1.10;1.02;;;13.40;99.90;;;;;;5133770;27;20250;-74
2022/06/08 00:53:13;;;;;;;0.73;0.70;;;13.40;99.90;;;;;;5115777;27;20190;-74
2022/06/08 00:55:40;;;;;;;0.50;0.50;;;13.40;99.90;;;;;;5115515;27;20237;-74
2022/06/08 00:58:25;;;;;;;0.93;0.90;;;13.40;99.90;;;;;;5134254;27;20201;-74
2022/06/08 01:00:51;;;;;;;2.00;0.93;;;13.40;99.90;;;;;;5134464;27;20644;-72
2022/06/08 01:03:17;;;;;;;0.82;0.82;;;13.30;99.90;;;;;;5115657;27;20202;-73
2022/06/08 01:05:49;;;;;;;2.10;1.90;;;13.30;99.90;;;;;;5134062;27;20186;-72
2022/06/08 01:08:36;;;;;;;0.68;0.68;;;13.30;99.90;;;;;;5136214;27;20182;-72
2022/06/08 01:11:06;;;;;;;1.02;0.95;;;13.30;99.90;;;;;;5154497;27;20190;-74
2022/06/08 01:13:35;;;;;;;0.57;0.57;;;13.30;99.90;;;;;;5154577;27;20198;-74
2022/06/08 01:16:06;;;;;;;1.17;1.02;;;13.30;99.90;;;;;;5136096;27;20218;-74
2022/06/08 01:18:33;;;;;;;0.57;0.57;;;13.20;99.90;;;;;;5154452;27;20197;-73
2022/06/08 01:21:22;;;;;;;0.85;0.80;;;13.20;99.90;;;;;;5136108;27;20197;-73
2022/06/08 01:23:49;;;;;;;0.85;0.85;;;13.20;99.90;;;;;;5106359;27;20698;-73
2022/06/08 01:26:34;;;;;;;0.65;0.65;;;13.20;99.90;;;;;;5154598;27;20551;-74
2022/06/08 01:29:18;;;;;;;2.05;1.25;;;13.20;99.90;;;;;;5154348;27;20263;-73
2022/06/08 01:31:57;;;;;;;0.52;0.52;;;13.20;99.90;;;;;;5154602;27;20273;-73
2022/06/08 01:35:17;;;;;;;0.95;0.90;;;13.20;99.90;;;;;;5135691;27;20205;-73
2022/06/08 01:37:56;;;;;;;0.65;0.60;;;13.30;99.90;;;;;;5070356;28;20231;-73
2022/06/08 01:40:40;;;;;;;1.17;1.05;;;13.30;99.90;;;;;;5070221;28;20209;-73
2022/06/08 01:43:15;;;;;;;0.90;0.82;;;13.30;99.90;;;;;;5053529;28;20644;-73
2022/06/08 01:46:04;;;;;;;0.68;0.68;;;13.30;99.90;;;;;;5070304;28;20358;-73
2022/06/08 01:48:51;;;;;;;0.50;0.50;;;13.30;99.90;;;;;;5069994;28;20288;-73
2022/06/08 01:51:34;;;;;;;0.70;0.70;;;13.40;99.90;;;;;;5053398;28;20215;-73
2022/06/08 01:54:23;;;;;;;1.10;1.05;;;13.40;99.90;;;;;;5070343;28;20284;-73
2022/06/08 01:57:03;;;;;;;2.33;1.67;;;13.40;99.90;;;;;;5033462;28;20639;-72
2022/06/08 01:59:46;;;;;;;0.60;0.60;;;13.40;99.90;;;;;;5070130;28;20227;-74
2022/06/08 02:02:12;;;;;;;0.82;0.80;;;13.40;99.90;;;;;;5067939;28;20234;-72
2022/06/08 02:04:52;;;;;;;1.20;1.02;;;13.40;99.90;;;;;;5053090;28;20205;-72
2022/06/08 02:07:20;;;;;;;1.17;0.98;;;13.40;99.90;;;;;;5054168;28;20217;-73
2022/06/08 02:10:01;;;;;;;0.82;0.82;;;13.40;99.90;;;;;;5073426;28;20291;-72
2022/06/08 02:12:30;;;;;;;1.60;1.23;;;13.40;99.90;;;;;;5106986;28;20302;-73
2022/06/08 02:15:07;;;;;;;0.95;0.70;;;13.40;99.90;;;;;;5114967;28;20285;-73
2022/06/08 02:17:38;;;;;;;1.38;1.27;;;13.40;99.90;;;;;;5133246;28;20197;-73
2022/06/08 02:20:12;;;;;;;1.00;1.00;;;13.40;99.90;;;;;;5114975;28;20195;-73
2022/06/08 02:22:49;;;;;;;0.70;0.70;;;13.40;99.90;;;;;;5131695;28;20225;-73
2022/06/08 02:25:36;;;;;;;0.70;0.70;;;13.40;99.90;;;;;;5143358;27;20651;-74
2022/06/08 02:28:06;;;;;;;1.35;1.25;;;13.40;99.90;;;;;;5135396;27;20204;-73
2022/06/08 02:30:38;;;;;;;0.50;0.50;;;13.40;99.90;;;;;;5153775;27;20187;-72
2022/06/08 02:35:59;;;;;;;1.15;0.82;;;13.40;99.90;;;;;;5157621;27;20223;-72
2022/06/08 02:38:32;;;;;;;0.63;0.63;;;13.40;99.90;;;;;;5138893;27;20218;-73
2022/06/08 02:40:59;;;;;;;0.80;0.80;;;13.40;99.90;;;;;;5157620;27;20732;-73
2022/06/08 02:43:48;;;;;;;0.88;0.88;;;13.40;99.90;;;;;;5157374;27;20604;-72
2022/06/08 02:46:24;;;;;;;0.70;0.65;;;13.50;99.90;;;;;;5157551;27;20189;-72
2022/06/08 02:48:49;;;;;;;1.50;1.00;;;13.50;99.90;;;;;;5134978;27;20197;-73
2022/06/08 02:51:16;;;;;;;0.80;0.80;;;13.50;99.90;;;;;;5136670;27;20657;-73
2022/06/08 02:53:59;;;;;;;2.17;0.85;;;13.50;99.90;;;;;;5118096;27;20195;-72
2022/06/08 02:56:37;;;;;;;0.43;0.43;;;13.50;99.90;;;;;;5117955;27;20194;-72
2022/06/08 02:59:06;;;;;;;0.68;0.68;;;13.50;99.90;;;;;;5136646;27;20191;-73
2022/06/08 03:01:44;;;;;;;0.60;0.60;;;13.50;99.90;;;;;;5144324;27;20197;-73
2022/06/08 03:04:19;;;;;;;1.02;0.93;;;13.50;99.90;;;;;;5150184;27;20673;-74
2022/06/08 03:06:51;;;;;;;1.02;1.02;;;13.50;99.90;;;;;;5118003;27;20187;-73
2022/06/08 03:09:18;;;;;;;1.15;1.05;;;13.50;99.90;;;;;;5136463;27;20191;-72
2022/06/08 03:11:54;;;;;;;0.70;0.70;;;13.60;99.90;;;;;;5136742;27;20210;-73
2022/06/08 03:14:20;;;;;;;0.70;0.70;;;13.60;99.90;;;;;;5136085;27;20587;-73
2022/06/08 03:17:03;;;;;;;0.60;0.60;;;13.60;99.90;;;;;;5117754;27;20199;-73
2022/06/08 03:19:32;;;;;;;1.05;1.05;;;13.70;99.90;;;;;;5135942;27;20199;-70
2022/06/08 03:21:58;;;;;;;0.50;0.50;;;13.70;99.90;;;;;;5150201;27;20668;-73
2022/06/08 03:24:25;;;;;;;0.50;0.50;;;13.70;99.90;;;;;;5137924;27;20301;-73
2022/06/08 03:26:54;;;;;;;0.43;0.43;;;13.70;99.90;;;;;;5156789;27;20186;-73
2022/06/08 03:29:20;;;;;;;1.27;1.05;;;13.70;99.90;;;;;;5137858;27;20202;-74
2022/06/08 03:31:46;;;;;;;1.10;0.93;;;13.60;99.90;;;;;;5139853;27;20303;-72
2022/06/08 03:34:12;;;;;;;2.88;2.03;;;13.60;99.90;;;;;;5135853;27;20588;-73
2022/06/08 03:36:38;;;;;;;2.05;1.30;;;13.70;99.90;;;;;;5135668;27;20206;-73
2022/06/08 03:39:05;;;;;;;0.52;0.52;;;13.70;99.90;;;;;;5135741;27;20543;-73
2022/06/08 03:41:31;;;;;;;0.50;0.50;;;13.70;99.90;;;;;;5116917;27;20199;-72
2022/06/08 03:43:57;;;;;;;0.70;0.70;;;13.60;99.90;;;;;;5135574;27;20255;-73
2022/06/08 03:46:23;;;;;;;1.17;1.08;;;13.60;99.90;;;;;;5115996;27;20658;-74
2022/06/08 03:48:51;;;;;;;1.45;1.30;;;13.60;99.90;;;;;;5135347;27;20187;-73
2022/06/08 03:51:18;;;;;;;0.93;0.93;;;13.60;99.90;;;;;;5135451;27;20202;-73
2022/06/08 03:53:51;;;;;;;1.10;1.10;;;13.60;99.90;;;;;;5135445;27;20198;-73
2022/06/08 03:56:18;;;;;;;0.98;0.98;;;13.60;99.90;;;;;;5116990;27;20224;-73
2022/06/08 03:58:45;;;;;;;0.50;0.50;;;13.50;99.90;;;;;;5152391;27;20202;-73
2022/06/08 04:01:12;;;;;;;0.70;0.70;;;13.60;99.90;;;;;;5155785;27;20647;-74
2022/06/08 04:03:38;;;;;;;0.77;0.77;;;13.60;99.90;;;;;;5155820;27;20238;-73
2022/06/08 04:06:03;;;;;;;0.60;0.60;;;13.70;99.90;;;;;;5137418;27;20279;-73
2022/06/08 04:08:31;;;;;;;0.45;0.45;;;13.70;99.90;;;;;;5155707;27;20269;-71
2022/06/08 04:10:58;;;;;;;0.75;0.75;;;13.70;99.90;;;;;;5156045;27;20647;-73
2022/06/08 04:13:24;;;;;;;0.82;0.77;;;13.70;99.90;;;;;;5155697;27;20225;-73
2022/06/08 04:15:50;;;;;;;0.70;0.70;;;13.70;99.90;;;;;;5137103;27;20290;-72
2022/06/08 04:18:19;;;;;;;1.05;0.82;;;13.70;99.90;;;;;;5155627;27;20724;-72
2022/06/08 04:20:48;;;;;;;0.82;0.82;;;13.70;99.90;;;;;;5155631;27;20198;-72
2022/06/08 04:23:16;;;;;;;0.60;0.60;;;13.70;99.90;;;;;;5155510;27;20194;-72
2022/06/08 04:25:43;;;;;;;0.50;0.50;;;13.70;99.90;;;;;;5136822;27;20190;-73
2022/06/08 04:28:09;;;;;;;1.20;1.05;;;13.70;99.90;;;;;;5137129;27;20453;-73
2022/06/08 04:30:36;;;;;;;0.85;0.85;;;13.70;99.90;;;;;;5155277;27;20556;-73
2022/06/08 04:33:03;;;;;;;0.90;0.90;;;13.70;99.90;;;;;;5155447;27;20589;-73
2022/06/08 04:35:29;;;;;;;0.55;0.55;;;13.70;99.90;;;;;;5155079;27;20202;-72
2022/06/08 04:37:55;;;;;;;0.50;0.50;;;13.70;99.90;;;;;;5136705;27;20206;-72
2022/06/08 04:40:22;;;;;;;0.55;0.55;;;13.70;99.90;;;;;;5136385;27;20281;-72
2022/06/08 04:42:49;;;;;;;1.33;0.77;;;13.70;99.90;;;;;;5136544;27;20209;-73
2022/06/08 04:45:15;;;;;;;0.63;0.63;;;13.70;99.90;;;;;;5136518;27;20194;-73
2022/06/08 04:47:41;;;;;;;0.70;0.70;;;13.60;99.90;;;;;;5136292;27;20273;-73
2022/06/08 04:50:08;;;;;;;0.50;0.50;;;13.60;99.90;;;;;;5118138;27;20223;-72
2022/06/08 04:52:35;;;;;;;0.73;0.70;;;13.60;99.90;;;;;;5113655;28;20278;-74
2022/06/08 04:55:01;;;;;;;0.60;0.60;;;13.60;99.90;;;;;;5130959;27;20186;-72
2022/06/08 04:57:29;;;;;;;0.68;0.68;;;13.50;99.90;;;;;;5132372;27;20298;-73
2022/06/08 04:59:56;;;;;;;0.70;0.70;;;13.50;99.90;;;;;;5132900;27;20328;-73
2022/06/08 05:05:07;;;;;;;0.47;0.47;;;13.40;99.90;;;;;;5134461;27;20220;-73
2022/06/08 05:07:32;;;;;;;6.45;1.00;;;13.50;99.90;;;;;;5133983;27;20559;-73
2022/06/08 05:09:58;;;;;;;0.80;0.80;;;13.50;99.90;;;;;;5134129;27;20190;-73
2022/06/08 05:12:24;;;;;;;0.65;0.65;;;13.50;99.90;;;;;;5133918;27;20197;-71
2022/06/08 05:14:50;;;;;;;0.80;0.80;;;13.60;99.90;;;;;;5132479;27;20282;-72
2022/06/08 05:17:15;;;;;;;1.05;1.05;;;13.50;99.90;;;;;;5133866;27;20270;-70
2022/06/08 05:19:41;;;;;;;0.80;0.73;;;13.50;99.90;;;;;;5132448;27;20653;-70
2022/06/08 05:22:07;;;;;;;0.95;0.85;;;13.60;99.90;;;;;;5133907;27;20186;-73
2022/06/08 05:24:33;;;;;;;0.95;0.93;;;13.50;99.90;;;;;;5133551;27;20641;-73
2022/06/08 05:26:59;;;;;;;0.85;0.85;;;13.50;99.90;;;;;;5132457;27;20252;-73
2022/06/08 05:29:24;;;;;;;0.60;0.60;;;13.40;99.90;;;;;;5131468;27;20625;-73
2022/06/08 05:31:50;;;;;;;0.57;0.57;;;13.40;99.90;;;;;;5133803;27;20213;-74
2022/06/08 05:34:16;;;;;;;0.82;0.82;;;13.40;99.90;;;;;;5133748;27;20190;-73
2022/06/08 05:36:42;;;;;;;1.02;0.75;;;13.50;99.90;;;;;;5133535;27;20197;-73
2022/06/08 05:39:08;;;;;;;0.93;0.82;;;13.50;99.90;;;;;;5133555;27;20246;-72
2022/06/08 05:41:34;;;;;;;0.40;0.40;;;13.50;99.90;;;;;;5133421;28;20190;-73
2022/06/08 05:44:00;;;;;;;0.60;0.60;;;13.50;99.90;;;;;;5132131;28;20210;-73
2022/06/08 05:46:26;;;;;;;0.57;0.57;;;13.50;99.90;;;;;;5133407;28;20242;-73
2022/06/08 05:48:52;;;;;;;0.55;0.55;;;13.50;99.90;;;;;;5134544;27;20182;-72
2022/06/08 05:51:18;;;;;;;0.40;0.40;;;13.50;99.90;;;;;;5154026;27;20206;-73
2022/06/08 05:53:45;;;;;;;0.95;0.90;;;13.40;99.90;;;;;;5154378;27;20202;-73
2022/06/08 05:56:11;;;;;;;0.70;0.70;;;13.40;99.90;;;;;;5154168;27;20568;-73
2022/06/08 05:58:36;;;;;;;0.85;0.85;;;13.30;99.90;;;;;;5154066;27;20221;-72
2022/06/08 06:01:03;;;;;;;0.65;0.65;;;13.20;99.90;;;;;;5154131;27;20217;-73
2022/06/08 06:03:28;;;;;;;0.50;0.50;;;13.20;99.90;;;;;;5153934;27;20265;-73
2022/06/08 06:05:55;;;;;;;0.82;0.65;;;13.30;99.90;;;;;;5135668;27;20194;-73
2022/06/08 06:08:21;;;;;;;0.88;0.68;;;13.30;99.90;;;;;;5153901;27;20213;-73
2022/06/08 06:10:48;;;;;;;1.55;1.10;;;13.40;99.90;;;;;;5157813;27;20367;-73
2022/06/08 06:13:13;;;;;;;0.40;0.40;;;13.60;99.90;;;;;;5158376;27;20272;-74
2022/06/08 06:15:39;;;;;;;0.80;0.80;;;13.80;99.90;;;;;;5157928;27;20273;-71
2022/06/08 06:18:06;;;;;;;0.40;0.40;;;14.00;99.90;;;;;;5158155;27;20197;-73
2022/06/08 06:20:32;;;;;;;1.15;0.65;;;14.30;99.90;;;;;;5157788;27;20216;-73
2022/06/08 06:22:58;;;;;;;0.70;0.70;;;14.50;99.90;;;;;;5139346;27;20218;-72
2022/06/08 06:25:24;;;;;;;0.30;0.30;;;14.80;99.90;;;;;;5139222;27;20212;-72
2022/06/08 06:27:50;;;;;;;0.70;0.70;;;14.90;99.90;;;;;;5157987;27;20186;-72
2022/06/08 06:30:17;;;;;;;0.40;0.40;;;15.10;99.90;;;;;;5157834;27;20311;-73
2022/06/08 06:32:45;;;;;;;0.43;0.40;;;15.40;99.90;;;;;;5157836;27;20264;-77
2022/06/08 06:35:29;;;;;;;0.85;0.60;;;15.70;99.90;;;;;;5157845;27;20205;-72
2022/06/08 06:37:55;;;;;;;0.77;0.77;;;16.20;99.90;;;;;;5157717;27;20197;-73
2022/06/08 06:40:21;;;;;;;0.50;0.50;;;16.30;99.90;;;;;;5157418;27;20190;-73
2022/06/08 06:42:48;;;;;;;0.95;0.82;;;16.60;99.90;;;;;;5157415;27;20194;-73
2022/06/08 06:45:14;;;;;;;0.68;0.65;;;16.80;99.90;;;;;;5139021;27;20652;-74
2022/06/08 06:47:40;;;;;;;0.47;0.47;;;16.60;99.90;;;;;;5138563;27;20190;-74
2022/06/08 06:50:08;;;;;;;0.47;0.47;;;16.40;99.90;;;;;;5156788;27;20218;-74
2022/06/08 06:52:33;;;;;;;0.30;0.30;;;16.20;99.90;;;;;;5138654;27;20190;-73
2022/06/08 06:54:59;;;;;;;0.85;0.60;;;16.10;99.90;;;;;;5157513;27;20186;-74
2022/06/08 06:57:25;;;;;;;0.30;0.30;;;16.20;99.90;;;;;;5157200;27;20198;-73
2022/06/08 06:59:51;;;;;;;0.80;0.75;;;16.40;99.90;;;;;;5157451;27;20542;-73
2022/06/08 07:02:20;;;;;;;0.77;0.38;;;16.60;99.90;;;;;;5138374;27;20629;-73
2022/06/08 07:04:47;;;;;;;0.47;0.47;;;16.50;99.90;;;;;;5157216;27;20644;-73
2022/06/08 07:07:13;;;;;;;0.70;0.70;;;16.30;99.90;;;;;;5156995;27;20201;-74
2022/06/08 07:09:39;;;;;;;0.75;0.70;;;16.10;99.90;;;;;;5156987;27;20603;-73
2022/06/08 07:12:06;;;;;;;4.78;1.85;;;16.10;99.90;;;;;;5157557;27;20198;-73
2022/06/08 07:14:33;;;;;;;0.50;0.50;;;15.90;99.90;;;;;;5138248;27;20198;-73
2022/06/08 07:16:59;;;;;;;0.40;0.40;;;15.80;99.90;;;;;;5119859;27;20228;-74
2022/06/08 07:19:25;;;;;;;0.52;0.52;;;15.70;99.90;;;;;;5117589;27;20195;-73
2022/06/08 07:21:51;;;;;;;0.40;0.40;;;15.70;99.90;;;;;;5136106;27;20194;-73
2022/06/08 07:24:33;;;;;;;0.35;0.35;;;15.80;99.90;;;;;;5137040;27;20203;-74
2022/06/08 07:27:00;;;;;;;0.40;0.40;;;15.80;99.90;;;;;;5156865;27;20310;-73
2022/06/08 07:29:25;;;;;;;0.50;0.50;;;15.60;99.90;;;;;;5156501;27;20201;-73
2022/06/08 07:31:52;;;;;;;0.63;0.63;;;15.50;99.90;;;;;;5138079;27;20190;-73
2022/06/08 07:34:18;;;;;;;0.50;0.50;;;15.90;99.90;;;;;;5156649;27;20205;-74
2022/06/08 07:36:44;;;;;;;0.28;0.28;;;16.40;99.90;;;;;;5156538;27;20265;-74
2022/06/08 07:39:12;;;;;;;0.50;0.50;;;16.30;99.90;;;;;;5137822;27;20307;-74
2022/06/08 07:41:38;;;;;;;0.30;0.30;;;16.30;99.90;;;;;;5137657;27;20262;-74
2022/06/08 07:44:04;;;;;;;0.38;0.38;;;16.70;99.90;;;;;;5156204;27;20206;-74
2022/06/08 07:46:30;;;;;;;0.47;0.47;;;16.90;99.90;;;;;;5156103;27;20289;-74
2022/06/08 07:51:41;;;;;;;0.30;0.30;;;16.70;99.90;;;;;;5156395;27;20243;-74
2022/06/08 07:54:07;;;;;;;0.40;0.40;;;16.60;99.90;;;;;;5156229;27;20190;-74
2022/06/08 07:56:33;;;;;;;0.50;0.50;;;16.80;99.90;;;;;;5156029;27;20225;-74
2022/06/08 07:58:59;;;;;;;0.60;0.60;;;16.90;99.90;;;;;;5137556;27;20194;-73
2022/06/08 08:01:24;;;;;;;0.82;0.50;;;17.10;99.90;;;;;;5155816;27;20230;-73
2022/06/08 08:03:50;;;;;;;0.45;0.45;;;17.00;99.90;;;;;;5155925;27;20202;-74
2022/06/08 08:06:16;;;;;;;0.30;0.30;;;16.70;99.90;;;;;;5156009;27;20182;-73
2022/06/08 08:08:43;;;;;;;0.40;0.40;;;16.60;99.90;;;;;;5154259;27;20663;-74
2022/06/08 08:11:09;;;;;;;0.40;0.40;;;16.50;99.90;;;;;;5156063;27;20214;-73
2022/06/08 08:13:36;;;;;;;0.30;0.30;;;16.50;99.90;;;;;;5155059;27;20748;-74
2022/06/08 08:16:03;;;;;;;0.35;0.35;;;16.60;99.90;;;;;;5155886;27;20212;-74
2022/06/08 08:18:28;;;;;;;0.43;0.43;;;16.40;99.90;;;;;;5155591;27;20276;-74
2022/06/08 08:20:54;;;;;;;0.52;0.50;;;16.30;99.90;;;;;;5155811;27;20269;-73
2022/06/08 08:23:20;;;;;;;0.57;0.57;;;16.30;99.90;;;;;;5136925;27;20206;-74
2022/06/08 08:25:45;;;;;;;0.50;0.50;;;16.40;99.90;;;;;;5155640;27;20632;-74
2022/06/08 08:28:11;;;;;;;1.00;0.57;;;16.50;99.90;;;;;;5155521;27;20186;-73
2022/06/08 08:30:37;;;;;;;0.30;0.30;;;16.50;99.90;;;;;;5155443;27;20530;-74
2022/06/08 08:33:03;;;;;;;0.38;0.38;;;16.50;99.90;;;;;;5154958;27;20538;-74
2022/06/08 08:35:29;;;;;;;0.85;0.70;;;16.60;99.90;;;;;;5155297;27;20217;-74
2022/06/08 08:37:56;;;;;;;0.50;0.50;;;16.80;99.90;;;;;;5136742;27;20233;-74
2022/06/08 08:40:38;;;;;;;0.70;0.70;;;16.80;99.90;;;;;;5154892;27;20281;-74
2022/06/08 08:43:06;;;;;;;0.77;0.52;;;16.60;99.90;;;;;;5154971;27;20228;-74
2022/06/08 08:45:47;;;;;;;0.40;0.40;;;16.40;99.90;;;;;;5136513;27;20190;-75
2022/06/08 08:48:28;;;;;;;0.50;0.50;;;15.90;99.90;;;;;;5136506;27;20623;-74
2022/06/08 08:51:26;;;;;;;0.30;0.30;;;15.70;99.90;;;;;;5115782;27;20279;-74
2022/06/08 08:53:52;;;;;;;0.63;0.63;;;15.70;99.90;;;;;;5134505;27;20187;-73
2022/06/08 08:56:27;;;;;;;0.30;0.30;;;15.90;99.90;;;;;;5134261;27;20285;-74
2022/06/08 08:58:53;;;;;;;0.40;0.40;;;16.40;99.90;;;;;;5134318;27;20653;-74
2022/06/08 09:01:33;;;;;;;0.30;0.30;;;17.20;99.90;;;;;;5134052;27;20205;-74
2022/06/08 09:04:05;;;;;;;0.95;0.80;;;17.50;99.90;;;;;;5134114;27;20238;-73
2022/06/08 09:06:33;;;;;;;0.38;0.38;;;17.70;99.90;;;;;;5133977;27;20559;-73
2022/06/08 09:09:03;;;;;;;0.35;0.32;;;17.10;99.90;;;;;;5148398;27;20607;-74
2022/06/08 09:11:35;;;;;;;0.40;0.40;;;16.70;99.90;;;;;;5154564;27;20193;-73
2022/06/08 09:14:22;;;;;;;0.57;0.57;;;16.50;99.90;;;;;;5154824;27;20190;-73
2022/06/08 09:17:08;;;;;;;0.45;0.45;;;16.10;99.90;;;;;;5136020;27;20201;-73
2022/06/08 09:19:43;;;;;;;0.80;0.80;;;15.80;99.90;;;;;;5135960;27;20227;-73
2022/06/08 09:22:08;;;;;;;0.30;0.30;;;15.60;99.90;;;;;;5135212;27;20218;-73
2022/06/08 09:24:57;;;;;;;0.30;0.30;;;15.60;99.90;;;;;;5135855;27;20206;-73
2022/06/08 09:27:47;;;;;;;0.50;0.50;;;15.60;99.90;;;;;;5135888;27;20733;-73
2022/06/08 09:30:24;;;;;;;0.40;0.40;;;15.70;99.90;;;;;;5154581;27;20623;-73
2022/06/08 09:32:59;;;;;;;0.43;0.43;;;15.60;99.90;;;;;;5136073;27;20198;-73
2022/06/08 09:35:39;;;;;;;0.40;0.40;;;15.70;99.90;;;;;;5154101;27;20621;-73
2022/06/08 09:38:11;;;;;;;0.30;0.30;;;15.60;99.90;;;;;;5154388;27;20569;-73
2022/06/08 09:40:37;;;;;;;0.40;0.40;;;15.90;99.90;;;;;;5135710;27;20198;-72
2022/06/08 09:43:38;;;;;;;0.43;0.43;;;16.50;99.90;;;;;;5154200;27;20660;-73
2022/06/08 09:52:10;;;;;;;0.30;0.30;;;17.20;99.90;;;;;;5105653;27;20275;-74
2022/06/08 09:54:44;;;;;;;0.30;0.30;;;17.00;99.90;;;;;;5139830;27;20186;-74
2022/06/08 09:57:34;;;;;;;0.30;0.30;;;17.10;99.90;;;;;;5158517;27;20186;-74
2022/06/08 10:00:20;;;;;;;0.30;0.30;;;17.50;99.90;;;;;;5139522;27;20259;-74
2022/06/08 10:03:20;;;;;;;26.58;1.10;;;18.00;99.90;;;;;;5137639;27;20660;-74
2022/06/08 10:06:07;;;;;;;0.68;0.40;;;18.60;99.90;;;;;;5156469;27;20194;-74
2022/06/08 10:08:47;;;;;;;0.35;0.35;;;18.40;99.90;;;;;;5139586;27;20196;-74
2022/06/08 10:11:34;;;;;;;0.40;0.40;;;18.30;99.90;;;;;;5139854;27;20648;-74
2022/06/08 10:14:33;;;;;;;0.40;0.40;;;17.90;99.90;;;;;;5158250;27;20202;-73
2022/06/08 10:17:17;;;;;;;0.28;0.28;;;17.80;99.90;;;;;;5158209;27;20190;-74
2022/06/08 10:20:34;;;;;;;0.50;0.50;;;17.80;99.90;;;;;;5157982;27;20623;-74
2022/06/08 10:23:24;;;;;;;0.40;0.40;;;17.80;99.90;;;;;;5077051;28;20763;-74
2022/06/08 10:26:39;;;;;;;0.30;0.30;;;17.50;99.90;;;;;;5094257;28;20199;-74
2022/06/08 10:29:35;;;;;;;0.40;0.40;;;17.80;99.90;;;;;;5088915;27;20206;-74
2022/06/08 10:32:04;;;;;;;0.35;0.35;;;18.40;99.90;;;;;;5150184;27;20202;-74
2022/06/08 10:34:34;;;;;;;0.30;0.30;;;18.80;99.90;;;;;;5138978;27;20210;-74
2022/06/08 10:37:10;;;;;;;0.20;0.20;;;19.00;99.90;;;;;;5157909;27;20190;-74
2022/06/08 10:39:39;;;;;;;0.30;0.30;;;18.80;99.90;;;;;;5138937;27;20201;-74
2022/06/08 10:44:58;;;;;;;0.35;0.35;;;18.80;99.90;;;;;;5157737;27;20239;-73
2022/06/08 10:47:38;;;;;;;0.50;0.50;;;18.70;99.90;;;;;;5138827;27;20694;-74
2022/06/08 10:50:04;;;;;;;0.40;0.40;;;18.30;99.90;;;;;;5157171;27;20218;-74
2022/06/08 10:52:47;;;;;;;0.30;0.30;;;17.50;99.90;;;;;;5157221;27;20185;-73
2022/06/08 10:55:17;;;;;;;0.75;0.60;;;17.20;99.90;;;;;;5157041;27;20651;-73
2022/06/08 10:57:49;;;;;;;0.52;0.52;;;17.40;99.90;;;;;;5157212;27;20182;-74
2022/06/08 11:00:18;;;;;;;0.20;0.20;;;17.50;99.90;;;;;;5137796;27;20281;-74
2022/06/08 11:03:02;;;;;;;0.43;0.43;;;17.80;99.90;;;;;;5157099;27;20272;-74
2022/06/08 11:05:45;;;;;;;0.30;0.30;;;17.90;99.90;;;;;;5157150;27;20182;-74
2022/06/08 11:08:13;;;;;;;0.38;0.38;;;17.70;99.90;;;;;;5157221;27;20197;-74
2022/06/08 11:10:47;;;;;;;0.47;0.47;;;17.90;99.90;;;;;;5157168;27;20228;-74
2022/06/08 11:13:22;;;;;;;0.30;0.30;;;18.60;99.90;;;;;;5157174;27;20664;-74
2022/06/08 11:16:15;;;;;;;0.55;0.35;;;18.90;99.90;;;;;;5157095;27;20246;-72
2022/06/08 11:19:04;;;;;;;0.30;0.30;;;18.70;99.90;;;;;;5138664;27;20604;-73
2022/06/08 11:21:36;;;;;;;0.22;0.22;;;18.00;99.90;;;;;;5138151;27;20250;-74
2022/06/08 11:24:19;;;;;;;0.40;0.40;;;18.00;99.90;;;;;;5156858;27;20613;-74
2022/06/08 11:26:48;;;;;;;0.30;0.30;;;18.00;99.90;;;;;;5156690;27;20268;-75
2022/06/08 11:29:17;;;;;;;0.32;0.32;;;17.60;99.90;;;;;;5156830;27;20645;-75
2022/06/08 11:31:43;;;;;;;0.30;0.30;;;17.30;99.90;;;;;;5156564;27;20226;-74
2022/06/08 11:34:20;;;;;;;0.40;0.40;;;17.10;99.90;;;;;;5156824;27;20236;-74
2022/06/08 11:37:14;;;;;;;0.43;0.43;;;17.30;99.90;;;;;;5156660;27;20200;-75
2022/06/08 11:39:47;;;;;;;0.32;0.32;;;17.00;99.90;;;;;;5156326;27;20213;-74
2022/06/08 11:42:24;;;;;;;0.30;0.30;;;16.60;99.90;;;;;;5137894;27;20323;-74
2022/06/08 11:45:24;;;;;;;0.30;0.30;;;16.40;99.90;;;;;;5137952;27;20284;-74
2022/06/08 11:48:05;;;;;;;0.40;0.40;;;16.20;99.90;;;;;;5156478;27;20207;-74
2022/06/08 11:50:43;;;;;;;0.40;0.40;;;16.70;99.90;;;;;;5137175;27;20237;-73
2022/06/08 11:53:19;;;;;;;0.30;0.30;;;17.60;99.90;;;;;;5156459;27;20190;-74
2022/06/08 11:56:16;;;;;;;0.32;0.32;;;18.20;99.90;;;;;;5156380;27;20193;-74
2022/06/08 11:58:47;;;;;;;0.20;0.20;;;18.30;99.90;;;;;;5143633;27;20210;-74
2022/06/08 12:01:19;;;;;;;0.20;0.20;;;18.10;99.90;;;;;;5135307;27;20191;-75
2022/06/08 12:04:15;;;;;;;0.10;0.10;;;17.90;99.90;;;;;;5135341;27;20209;-75
2022/06/08 12:06:43;;;;;;;0.10;0.10;;;17.70;99.90;;;;;;5132990;27;20237;-74
2022/06/08 12:09:20;;;;;;;0.45;0.35;;;17.50;99.90;;;;;;5135323;27;20600;-74
2022/06/08 12:11:52;;;;;;;0.20;0.20;;;17.20;99.90;;;;;;5135219;27;20239;-74
2022/06/08 12:14:36;;;;;;;0.10;0.10;;;17.40;99.90;;;;;;5135162;27;20210;-75
2022/06/08 12:17:38;;;;;;;0.20;0.20;;;17.50;99.90;;;;;;5135501;27;20248;-74
2022/06/08 12:20:32;;;;;;;0.10;0.10;;;18.00;99.90;;;;;;5132468;27;20281;-74
2022/06/08 12:23:00;;;;;;;0.20;0.20;;;19.20;99.90;;;;;;5135015;27;20206;-74
2022/06/08 12:25:28;;;;;;;0.10;0.10;;;19.80;99.90;;;;;;5134859;27;20558;-74
2022/06/08 12:27:57;;;;;;;0.43;0.40;;;19.40;99.90;;;;;;5151748;27;20205;-74
2022/06/08 12:30:30;;;;;;;0.10;0.10;;;18.50;99.90;;;;;;5136881;27;20216;-75
2022/06/08 12:32:56;;;;;;;0.15;0.15;;;18.00;99.90;;;;;;5155667;27;20198;-73
2022/06/08 12:35:38;;;;;;;0.10;0.10;;;18.20;99.90;;;;;;5155256;27;20227;-74
2022/06/08 12:38:24;;;;;;;0.25;0.25;;;18.00;99.90;;;;;;5155528;27;20190;-74
2022/06/08 12:41:16;;;;;;;0.10;0.10;;;17.80;99.90;;;;;;5155279;27;20186;-75
2022/06/08 12:43:51;;;;;;;0.10;0.10;;;18.10;99.90;;;;;;5152295;27;20214;-75
2022/06/08 12:46:21;;;;;;;1.83;0.47;;;18.00;99.90;;;;;;5155354;27;20182;-75
2022/06/08 12:48:59;;;;;;;0.70;0.35;;;17.80;99.90;;;;;;5133283;27;20269;-75
2022/06/08 12:51:33;;;;;;;0.20;0.20;;;17.80;99.90;;;;;;5134286;27;20212;-74
2022/06/08 12:54:35;;;;;;;0.10;0.10;;;17.60;99.90;;;;;;5130097;27;20201;-75
2022/06/08 12:57:31;;;;;;;0.10;0.10;;;17.30;99.90;;;;;;5091286;28;20314;-75
2022/06/08 13:00:03;;;;;;;0.35;0.35;;;16.70;99.90;;;;;;5071651;28;20663;-74
2022/06/08 13:02:34;;;;;;;7.97;1.48;;;16.60;99.90;;;;;;5070642;28;20270;-74
2022/06/08 13:05:02;;;;;;;0.20;0.20;;;16.50;99.90;;;;;;5071127;28;20203;-74
2022/06/08 13:07:31;;;;;;;0.10;0.10;;;16.40;99.90;;;;;;5054107;28;20195;-74
2022/06/08 13:09:58;;;;;;;0.20;0.20;;;16.50;99.90;;;;;;5071028;28;20564;-74
2022/06/08 13:12:33;;;;;;;0.13;0.13;;;16.60;99.90;;;;;;5053945;28;20201;-74
2022/06/08 13:14:59;;;;;;;0.20;0.20;;;16.80;99.90;;;;;;5070886;28;20238;-74
2022/06/08 13:17:25;;;;;;;0.17;0.17;;;17.10;99.90;;;;;;5070618;28;20664;-75
2022/06/08 13:19:52;;;;;;;0.10;0.10;;;17.40;99.90;;;;;;5058813;28;20192;-75
2022/06/08 13:22:17;;;;;;;0.20;0.20;;;17.60;99.90;;;;;;5090749;28;20195;-74
2022/06/08 13:24:43;;;;;;;0.20;0.20;;;17.90;99.90;;;;;;5073654;28;20344;-75
2022/06/08 13:27:14;;;;;;;0.10;0.10;;;18.00;99.90;;;;;;5091002;28;20636;-74
2022/06/08 13:29:40;;;;;;;0.30;0.30;;;18.00;99.90;;;;;;5090741;28;20203;-75
2022/06/08 13:32:14;;;;;;;0.10;0.10;;;17.40;99.90;;;;;;5132565;27;20277;-74